sensor_id;sensor_type;location;lat;lon;timestamp;pressure;altitude;pressure_sealevel;temperature;humidity
67980;BME280;54760;47.490;19.030;2023-04-22T00:01:45;99905.53;;;13.32;52.69
67980;BME280;54760;47.490;19.030;2023-04-22T00:04:10;99903.41;;;13.11;52.54
67980;BME280;54760;47.490;19.030;2023-04-22T00:06:36;99906.16;;;12.85;53.63
67980;BME280;54760;47.490;19.030;2023-04-22T00:09:02;99909.78;;;12.82;53.70
67980;BME280;54760;47.490;19.030;2023-04-22T00:11:27;99910.00;;;13.00;53.04
67980;BME280;54760;47.490;19.030;2023-04-22T00:13:53;99897.53;;;13.12;52.72
67980;BME280;54760;47.490;19.030;2023-04-22T00:16:18;99897.97;;;13.23;52.38
67980;BME280;54760;47.490;19.030;2023-04-22T00:18:44;99896.19;;;13.04;53.10
67980;BME280;54760;47.490;19.030;2023-04-22T00:21:09;99907.53;;;13.19;53.07
67980;BME280;54760;47.490;19.030;2023-04-22T00:23:35;99900.25;;;12.99;53.55
67980;BME280;54760;47.490;19.030;2023-04-22T00:26:01;99892.66;;;13.03;53.55
67980;BME280;54760;47.490;19.030;2023-04-22T00:28:26;99898.47;;;13.06;53.62
67980;BME280;54760;47.490;19.030;2023-04-22T00:30:52;99898.12;;;12.78;53.93
67980;BME280;54760;47.490;19.030;2023-04-22T00:33:17;99905.12;;;12.54;54.81
67980;BME280;54760;47.490;19.030;2023-04-22T00:35:45;99904.84;;;13.02;53.59
67980;BME280;54760;47.490;19.030;2023-04-22T00:38:10;99904.75;;;12.93;53.75
67980;BME280;54760;47.490;19.030;2023-04-22T00:40:36;99904.41;;;12.91;53.89
67980;BME280;54760;47.490;19.030;2023-04-22T00:43:01;99902.97;;;12.74;54.46
67980;BME280;54760;47.490;19.030;2023-04-22T00:45:27;99896.41;;;12.84;54.00
67980;BME280;54760;47.490;19.030;2023-04-22T00:47:55;99897.38;;;12.90;53.73
67980;BME280;54760;47.490;19.030;2023-04-22T00:50:20;99899.69;;;12.92;53.77
67980;BME280;54760;47.490;19.030;2023-04-22T00:52:46;99894.78;;;13.12;53.23
67980;BME280;54760;47.490;19.030;2023-04-22T00:55:11;99893.97;;;13.24;53.42
67980;BME280;54760;47.490;19.030;2023-04-22T00:57:38;99902.66;;;13.10;53.76
67980;BME280;54760;47.490;19.030;2023-04-22T01:00:05;99906.06;;;13.01;53.79
67980;BME280;54760;47.490;19.030;2023-04-22T01:02:31;99901.56;;;13.08;53.53
67980;BME280;54760;47.490;19.030;2023-04-22T01:04:56;99906.06;;;13.01;53.60
67980;BME280;54760;47.490;19.030;2023-04-22T01:07:23;99911.88;;;12.66;54.60
67980;BME280;54760;47.490;19.030;2023-04-22T01:09:48;99904.06;;;12.77;54.29
67980;BME280;54760;47.490;19.030;2023-04-22T01:12:14;99906.25;;;12.69;55.01
67980;BME280;54760;47.490;19.030;2023-04-22T01:14:40;99916.91;;;12.67;55.01
67980;BME280;54760;47.490;19.030;2023-04-22T01:17:05;99911.50;;;12.51;55.43
67980;BME280;54760;47.490;19.030;2023-04-22T01:19:31;99917.59;;;12.30;55.86
67980;BME280;54760;47.490;19.030;2023-04-22T01:21:58;99917.34;;;12.24;56.72
67980;BME280;54760;47.490;19.030;2023-04-22T01:24:25;99910.06;;;12.18;57.23
67980;BME280;54760;47.490;19.030;2023-04-22T01:26:50;99919.31;;;12.24;56.96
67980;BME280;54760;47.490;19.030;2023-04-22T01:29:16;99923.72;;;12.21;57.22
67980;BME280;54760;47.490;19.030;2023-04-22T01:31:42;99917.19;;;12.15;57.34
67980;BME280;54760;47.490;19.030;2023-04-22T01:34:07;99911.59;;;12.19;57.36
67980;BME280;54760;47.490;19.030;2023-04-22T01:36:33;99917.06;;;11.90;58.46
67980;BME280;54760;47.490;19.030;2023-04-22T01:38:59;99922.97;;;11.88;59.10
67980;BME280;54760;47.490;19.030;2023-04-22T01:41:25;99923.47;;;12.15;58.33
67980;BME280;54760;47.490;19.030;2023-04-22T01:43:56;99923.13;;;11.97;59.11
67980;BME280;54760;47.490;19.030;2023-04-22T01:46:22;99923.09;;;12.13;58.75
67980;BME280;54760;47.490;19.030;2023-04-22T01:48:47;99927.19;;;11.93;59.40
67980;BME280;54760;47.490;19.030;2023-04-22T01:51:18;99932.09;;;11.85;59.35
67980;BME280;54760;47.490;19.030;2023-04-22T01:53:48;99925.37;;;11.70;59.79
67980;BME280;54760;47.490;19.030;2023-04-22T01:56:14;99926.94;;;11.71;59.71
67980;BME280;54760;47.490;19.030;2023-04-22T01:58:40;99921.97;;;11.66;59.81
67980;BME280;54760;47.490;19.030;2023-04-22T02:01:09;99922.41;;;11.81;59.54
67980;BME280;54760;47.490;19.030;2023-04-22T02:03:35;99922.28;;;12.00;58.59
67980;BME280;54760;47.490;19.030;2023-04-22T02:06:00;99927.19;;;11.93;58.99
67980;BME280;54760;47.490;19.030;2023-04-22T02:08:26;99920.84;;;11.96;58.70
67980;BME280;54760;47.490;19.030;2023-04-22T02:10:51;99926.44;;;11.92;58.99
67980;BME280;54760;47.490;19.030;2023-04-22T02:13:17;99918.34;;;12.01;58.56
67980;BME280;54760;47.490;19.030;2023-04-22T02:15:42;99913.81;;;11.95;58.90
67980;BME280;54760;47.490;19.030;2023-04-22T02:18:08;99929.12;;;12.08;58.76
67980;BME280;54760;47.490;19.030;2023-04-22T02:20:35;99923.81;;;11.73;60.02
67980;BME280;54760;47.490;19.030;2023-04-22T02:23:01;99921.44;;;11.71;60.46
67980;BME280;54760;47.490;19.030;2023-04-22T02:25:27;99926.75;;;11.94;59.44
67980;BME280;54760;47.490;19.030;2023-04-22T02:27:53;99917.50;;;11.88;59.28
67980;BME280;54760;47.490;19.030;2023-04-22T02:30:19;99921.09;;;11.69;59.79
67980;BME280;54760;47.490;19.030;2023-04-22T02:32:44;99922.84;;;11.63;60.18
67980;BME280;54760;47.490;19.030;2023-04-22T02:35:10;99924.28;;;11.67;59.91
67980;BME280;54760;47.490;19.030;2023-04-22T02:37:36;99919.16;;;11.86;59.36
67980;BME280;54760;47.490;19.030;2023-04-22T02:40:02;99916.38;;;11.53;60.35
67980;BME280;54760;47.490;19.030;2023-04-22T02:42:28;99913.91;;;11.26;61.58
67980;BME280;54760;47.490;19.030;2023-04-22T02:44:53;99919.31;;;11.30;61.78
67980;BME280;54760;47.490;19.030;2023-04-22T02:47:19;99916.84;;;11.52;61.03
67980;BME280;54760;47.490;19.030;2023-04-22T02:49:44;99914.94;;;11.49;60.99
67980;BME280;54760;47.490;19.030;2023-04-22T02:52:09;99910.31;;;11.46;60.96
67980;BME280;54760;47.490;19.030;2023-04-22T02:54:35;99918.13;;;11.47;61.27
67980;BME280;54760;47.490;19.030;2023-04-22T02:57:01;99917.50;;;11.40;61.42
67980;BME280;54760;47.490;19.030;2023-04-22T02:59:27;99912.03;;;11.40;61.49
67980;BME280;54760;47.490;19.030;2023-04-22T03:01:52;99911.41;;;11.64;60.70
67980;BME280;54760;47.490;19.030;2023-04-22T03:04:17;99915.63;;;11.69;60.48
67980;BME280;54760;47.490;19.030;2023-04-22T03:06:47;99918.53;;;11.46;61.28
67980;BME280;54760;47.490;19.030;2023-04-22T03:09:13;99910.31;;;11.46;61.46
67980;BME280;54760;47.490;19.030;2023-04-22T03:11:38;99916.28;;;11.24;62.49
67980;BME280;54760;47.490;19.030;2023-04-22T03:14:04;99919.78;;;10.93;64.00
67980;BME280;54760;47.490;19.030;2023-04-22T03:16:29;99917.44;;;10.91;63.96
67980;BME280;54760;47.490;19.030;2023-04-22T03:18:54;99923.00;;;10.88;64.16
67980;BME280;54760;47.490;19.030;2023-04-22T03:21:20;99916.56;;;11.14;63.54
67980;BME280;54760;47.490;19.030;2023-04-22T03:23:45;99917.34;;;11.47;62.34
67980;BME280;54760;47.490;19.030;2023-04-22T03:26:11;99921.12;;;11.37;62.43
67980;BME280;54760;47.490;19.030;2023-04-22T03:28:38;99912.88;;;11.04;63.45
67980;BME280;54760;47.490;19.030;2023-04-22T03:31:03;99918.19;;;11.11;63.48
67980;BME280;54760;47.490;19.030;2023-04-22T03:33:28;99916.06;;;11.19;62.96
67980;BME280;54760;47.490;19.030;2023-04-22T03:35:54;99918.34;;;11.04;63.46
67980;BME280;54760;47.490;19.030;2023-04-22T03:38:20;99920.06;;;11.14;63.11
67980;BME280;54760;47.490;19.030;2023-04-22T03:40:45;99917.66;;;11.16;63.15
67980;BME280;54760;47.490;19.030;2023-04-22T03:43:10;99924.09;;;11.26;62.92
67980;BME280;54760;47.490;19.030;2023-04-22T03:45:36;99922.78;;;11.14;63.18
67980;BME280;54760;47.490;19.030;2023-04-22T03:48:01;99936.59;;;11.27;63.33
67980;BME280;54760;47.490;19.030;2023-04-22T03:50:27;99937.16;;;11.02;63.76
67980;BME280;54760;47.490;19.030;2023-04-22T03:52:53;99939.53;;;11.00;63.63
67980;BME280;54760;47.490;19.030;2023-04-22T03:55:18;99927.59;;;11.10;62.80
67980;BME280;54760;47.490;19.030;2023-04-22T03:57:44;99934.19;;;11.29;61.98
67980;BME280;54760;47.490;19.030;2023-04-22T04:00:10;99935.41;;;11.28;61.57
67980;BME280;54760;47.490;19.030;2023-04-22T04:02:36;99938.34;;;11.01;62.47
67980;BME280;54760;47.490;19.030;2023-04-22T04:05:01;99933.75;;;11.14;62.43
67980;BME280;54760;47.490;19.030;2023-04-22T04:07:27;99941.63;;;11.12;62.64
67980;BME280;54760;47.490;19.030;2023-04-22T04:09:52;99931.22;;;10.88;63.66
67980;BME280;54760;47.490;19.030;2023-04-22T04:12:17;99934.94;;;10.97;63.70
67980;BME280;54760;47.490;19.030;2023-04-22T04:14:43;99940.19;;;11.08;63.75
67980;BME280;54760;47.490;19.030;2023-04-22T04:17:08;99943.25;;;11.10;63.87
67980;BME280;54760;47.490;19.030;2023-04-22T04:19:35;99949.44;;;11.30;63.48
67980;BME280;54760;47.490;19.030;2023-04-22T04:22:01;99942.69;;;11.51;62.31
67980;BME280;54760;47.490;19.030;2023-04-22T04:24:26;99948.69;;;11.46;61.78
67980;BME280;54760;47.490;19.030;2023-04-22T04:26:52;99943.88;;;11.50;61.31
67980;BME280;54760;47.490;19.030;2023-04-22T04:29:18;99943.69;;;11.24;62.34
67980;BME280;54760;47.490;19.030;2023-04-22T04:31:44;99949.38;;;11.50;61.73
67980;BME280;54760;47.490;19.030;2023-04-22T04:34:10;99951.34;;;11.65;60.66
67980;BME280;54760;47.490;19.030;2023-04-22T04:36:35;99962.09;;;11.76;60.17
67980;BME280;54760;47.490;19.030;2023-04-22T04:39:04;99956.41;;;11.67;60.32
67980;BME280;54760;47.490;19.030;2023-04-22T04:41:30;99964.97;;;11.53;60.53
67980;BME280;54760;47.490;19.030;2023-04-22T04:43:56;99961.31;;;11.76;58.94
67980;BME280;54760;47.490;19.030;2023-04-22T04:46:25;99963.44;;;11.84;58.98
67980;BME280;54760;47.490;19.030;2023-04-22T04:48:54;99968.41;;;11.89;58.54
67980;BME280;54760;47.490;19.030;2023-04-22T04:51:19;99968.84;;;11.88;58.34
67980;BME280;54760;47.490;19.030;2023-04-22T04:53:45;99970.03;;;11.70;58.13
67980;BME280;54760;47.490;19.030;2023-04-22T04:56:10;99966.16;;;11.68;58.34
67980;BME280;54760;47.490;19.030;2023-04-22T04:58:35;99969.63;;;11.88;57.43
67980;BME280;54760;47.490;19.030;2023-04-22T05:01:01;99968.81;;;12.20;55.91
67980;BME280;54760;47.490;19.030;2023-04-22T05:03:26;99972.06;;;12.15;55.89
67980;BME280;54760;47.490;19.030;2023-04-22T05:05:52;99978.34;;;12.15;55.98
67980;BME280;54760;47.490;19.030;2023-04-22T05:08:17;99974.66;;;12.06;56.44
67980;BME280;54760;47.490;19.030;2023-04-22T05:10:43;99967.88;;;12.10;56.41
67980;BME280;54760;47.490;19.030;2023-04-22T05:13:09;99975.41;;;12.23;56.23
67980;BME280;54760;47.490;19.030;2023-04-22T05:15:35;99971.59;;;12.33;56.22
67980;BME280;54760;47.490;19.030;2023-04-22T05:18:01;99968.16;;;12.45;56.25
67980;BME280;54760;47.490;19.030;2023-04-22T05:20:26;99972.97;;;12.41;56.03
67980;BME280;54760;47.490;19.030;2023-04-22T05:22:51;99980.84;;;12.39;57.29
67980;BME280;54760;47.490;19.030;2023-04-22T05:25:17;99976.03;;;12.43;56.19
67980;BME280;54760;47.490;19.030;2023-04-22T05:27:42;99980.22;;;12.47;56.13
67980;BME280;54760;47.490;19.030;2023-04-22T05:30:08;99979.75;;;12.65;55.33
67980;BME280;54760;47.490;19.030;2023-04-22T05:32:34;99979.75;;;12.65;55.06
67980;BME280;54760;47.490;19.030;2023-04-22T05:34:59;99975.25;;;12.71;54.69
67980;BME280;54760;47.490;19.030;2023-04-22T05:37:25;99984.31;;;12.84;53.56
67980;BME280;54760;47.490;19.030;2023-04-22T05:39:50;99983.41;;;12.87;53.41
67980;BME280;54760;47.490;19.030;2023-04-22T05:42:18;99984.63;;;12.86;53.89
67980;BME280;54760;47.490;19.030;2023-04-22T05:44:44;99983.19;;;12.82;54.00
67980;BME280;54760;47.490;19.030;2023-04-22T05:47:09;99982.22;;;12.88;54.82
67980;BME280;54760;47.490;19.030;2023-04-22T05:49:34;99984.00;;;12.95;55.89
67980;BME280;54760;47.490;19.030;2023-04-22T05:52:00;99990.66;;;12.81;57.09
67980;BME280;54760;47.490;19.030;2023-04-22T05:54:25;99984.53;;;13.02;57.34
67980;BME280;54760;47.490;19.030;2023-04-22T05:56:51;99985.50;;;12.83;58.17
67980;BME280;54760;47.490;19.030;2023-04-22T05:59:16;99999.13;;;12.87;58.25
67980;BME280;54760;47.490;19.030;2023-04-22T06:01:42;99993.75;;;12.83;58.79
67980;BME280;54760;47.490;19.030;2023-04-22T06:04:08;99986.28;;;12.96;58.83
67980;BME280;54760;47.490;19.030;2023-04-22T06:06:35;99998.56;;;12.79;59.35
67980;BME280;54760;47.490;19.030;2023-04-22T06:09:01;99994.88;;;12.98;58.89
67980;BME280;54760;47.490;19.030;2023-04-22T06:11:26;100005.66;;;13.06;59.68
67980;BME280;54760;47.490;19.030;2023-04-22T06:13:52;100002.41;;;13.36;57.58
67980;BME280;54760;47.490;19.030;2023-04-22T06:16:18;99988.34;;;15.58;51.79
67980;BME280;54760;47.490;19.030;2023-04-22T06:18:43;99990.97;;;18.15;45.63
67980;BME280;54760;47.490;19.030;2023-04-22T06:21:08;99987.38;;;20.26;40.17
67980;BME280;54760;47.490;19.030;2023-04-22T06:23:34;99990.56;;;21.79;37.16
67980;BME280;54760;47.490;19.030;2023-04-22T06:26:00;99987.97;;;23.11;33.79
67980;BME280;54760;47.490;19.030;2023-04-22T06:28:26;99991.69;;;23.91;32.77
67980;BME280;54760;47.490;19.030;2023-04-22T06:30:52;99985.13;;;24.46;31.34
67980;BME280;54760;47.490;19.030;2023-04-22T06:33:17;99995.03;;;24.53;30.75
67980;BME280;54760;47.490;19.030;2023-04-22T06:35:43;99988.19;;;25.25;28.42
67980;BME280;54760;47.490;19.030;2023-04-22T06:38:09;99990.94;;;25.60;27.67
67980;BME280;54760;47.490;19.030;2023-04-22T06:40:35;99985.28;;;26.33;27.21
67980;BME280;54760;47.490;19.030;2023-04-22T06:43:00;99981.00;;;25.59;26.69
67980;BME280;54760;47.490;19.030;2023-04-22T06:45:25;99981.19;;;25.37;27.13
67980;BME280;54760;47.490;19.030;2023-04-22T06:47:51;99993.78;;;22.85;30.60
67980;BME280;54760;47.490;19.030;2023-04-22T06:50:18;99992.09;;;21.86;32.54
67980;BME280;54760;47.490;19.030;2023-04-22T06:52:43;99990.50;;;20.80;33.58
67980;BME280;54760;47.490;19.030;2023-04-22T06:55:09;99995.09;;;19.61;32.91
67980;BME280;54760;47.490;19.030;2023-04-22T06:57:34;99988.00;;;19.11;33.22
67980;BME280;54760;47.490;19.030;2023-04-22T07:00:00;99987.66;;;19.38;35.73
67980;BME280;54760;47.490;19.030;2023-04-22T07:02:25;99989.75;;;18.55;35.88
67980;BME280;54760;47.490;19.030;2023-04-22T07:04:51;99989.09;;;18.60;33.51
67980;BME280;54760;47.490;19.030;2023-04-22T07:07:16;99982.06;;;18.50;33.13
67980;BME280;54760;47.490;19.030;2023-04-22T07:09:42;99988.81;;;18.58;32.71
67980;BME280;54760;47.490;19.030;2023-04-22T07:12:07;99988.53;;;18.56;33.16
67980;BME280;54760;47.490;19.030;2023-04-22T07:14:33;99988.38;;;18.50;32.90
67980;BME280;54760;47.490;19.030;2023-04-22T07:16:59;99990.09;;;18.48;32.34
67980;BME280;54760;47.490;19.030;2023-04-22T07:19:24;99987.09;;;18.60;32.07
67980;BME280;54760;47.490;19.030;2023-04-22T07:21:50;99992.00;;;18.80;31.91
67980;BME280;54760;47.490;19.030;2023-04-22T07:24:16;99983.47;;;18.69;31.87
67980;BME280;54760;47.490;19.030;2023-04-22T07:26:42;99992.56;;;18.84;31.15
67980;BME280;54760;47.490;19.030;2023-04-22T07:29:08;99989.56;;;18.58;30.29
67980;BME280;54760;47.490;19.030;2023-04-22T07:31:34;99986.03;;;18.73;30.53
67980;BME280;54760;47.490;19.030;2023-04-22T07:34:00;99995.13;;;18.73;29.79
67980;BME280;54760;47.490;19.030;2023-04-22T07:36:26;99988.47;;;18.94;29.67
67980;BME280;54760;47.490;19.030;2023-04-22T07:38:56;99996.31;;;18.81;30.43
67980;BME280;54760;47.490;19.030;2023-04-22T07:41:21;99996.56;;;18.83;30.03
67980;BME280;54760;47.490;19.030;2023-04-22T07:43:47;99994.37;;;18.73;30.63
67980;BME280;54760;47.490;19.030;2023-04-22T07:46:12;99991.81;;;18.98;30.54
67980;BME280;54760;47.490;19.030;2023-04-22T07:48:38;99993.59;;;19.01;30.35
67980;BME280;54760;47.490;19.030;2023-04-22T07:51:03;99989.59;;;19.02;29.99
67980;BME280;54760;47.490;19.030;2023-04-22T07:53:29;99993.22;;;19.38;29.91
67980;BME280;54760;47.490;19.030;2023-04-22T07:55:54;99992.75;;;19.54;30.42
67980;BME280;54760;47.490;19.030;2023-04-22T07:58:20;99990.53;;;19.29;30.32
67980;BME280;54760;47.490;19.030;2023-04-22T08:00:45;99988.38;;;19.68;30.24
67980;BME280;54760;47.490;19.030;2023-04-22T08:03:12;99989.97;;;19.54;29.93
67980;BME280;54760;47.490;19.030;2023-04-22T08:05:38;99993.41;;;19.84;29.46
67980;BME280;54760;47.490;19.030;2023-04-22T08:08:04;99990.28;;;19.76;29.38
67980;BME280;54760;47.490;19.030;2023-04-22T08:10:30;99985.91;;;20.10;29.66
67980;BME280;54760;47.490;19.030;2023-04-22T08:12:55;99985.00;;;20.19;28.84
67980;BME280;54760;47.490;19.030;2023-04-22T08:15:20;99995.94;;;20.02;28.58
67980;BME280;54760;47.490;19.030;2023-04-22T08:17:46;99985.28;;;20.21;27.97
67980;BME280;54760;47.490;19.030;2023-04-22T08:20:11;99992.78;;;20.15;28.83
67980;BME280;54760;47.490;19.030;2023-04-22T08:22:39;99990.09;;;20.41;28.31
67980;BME280;54760;47.490;19.030;2023-04-22T08:25:07;99989.84;;;20.64;28.14
67980;BME280;54760;47.490;19.030;2023-04-22T08:27:33;99990.06;;;20.87;27.58
67980;BME280;54760;47.490;19.030;2023-04-22T08:29:59;99994.84;;;21.12;27.86
67980;BME280;54760;47.490;19.030;2023-04-22T08:32:25;99988.22;;;21.30;26.90
67980;BME280;54760;47.490;19.030;2023-04-22T08:34:50;99987.75;;;21.37;26.46
67980;BME280;54760;47.490;19.030;2023-04-22T08:37:16;99995.63;;;20.87;27.01
67980;BME280;54760;47.490;19.030;2023-04-22T08:39:41;99992.09;;;20.86;27.25
67980;BME280;54760;47.490;19.030;2023-04-22T08:42:07;99991.59;;;21.13;26.78
67980;BME280;54760;47.490;19.030;2023-04-22T08:44:34;99995.75;;;20.98;27.44
67980;BME280;54760;47.490;19.030;2023-04-22T08:47:00;99991.22;;;20.74;27.06
67980;BME280;54760;47.490;19.030;2023-04-22T08:49:26;99988.56;;;20.86;27.24
67980;BME280;54760;47.490;19.030;2023-04-22T08:51:53;99983.22;;;21.39;26.80
67980;BME280;54760;47.490;19.030;2023-04-22T08:54:20;99987.22;;;21.70;26.18
67980;BME280;54760;47.490;19.030;2023-04-22T08:56:45;99978.84;;;22.12;26.01
67980;BME280;54760;47.490;19.030;2023-04-22T08:59:14;99974.31;;;22.20;25.55
67980;BME280;54760;47.490;19.030;2023-04-22T09:01:41;99978.97;;;22.51;25.18
67980;BME280;54760;47.490;19.030;2023-04-22T09:04:13;99979.22;;;22.48;24.63
67980;BME280;54760;47.490;19.030;2023-04-22T09:06:39;99977.72;;;22.63;24.57
67980;BME280;54760;47.490;19.030;2023-04-22T09:09:04;99979.25;;;22.64;24.80
67980;BME280;54760;47.490;19.030;2023-04-22T09:11:30;99979.47;;;22.50;25.25
67980;BME280;54760;47.490;19.030;2023-04-22T09:13:56;99987.09;;;22.55;24.96
67980;BME280;54760;47.490;19.030;2023-04-22T09:16:22;99978.53;;;22.75;24.64
67980;BME280;54760;47.490;19.030;2023-04-22T09:18:48;99975.78;;;22.86;24.41
67980;BME280;54760;47.490;19.030;2023-04-22T09:21:14;99978.81;;;22.99;24.20
67980;BME280;54760;47.490;19.030;2023-04-22T09:23:48;99975.28;;;23.15;24.28
67980;BME280;54760;47.490;19.030;2023-04-22T09:26:14;99982.62;;;22.85;23.75
67980;BME280;54760;47.490;19.030;2023-04-22T09:28:53;99971.91;;;22.67;24.40
67980;BME280;54760;47.490;19.030;2023-04-22T09:31:21;99981.88;;;22.09;24.41
67980;BME280;54760;47.490;19.030;2023-04-22T09:33:56;99985.66;;;22.06;24.45
67980;BME280;54760;47.490;19.030;2023-04-22T09:36:31;99984.34;;;22.01;24.54
67980;BME280;54760;47.490;19.030;2023-04-22T09:39:08;99977.38;;;22.33;24.36
67980;BME280;54760;47.490;19.030;2023-04-22T09:41:37;99970.41;;;22.82;24.05
67980;BME280;54760;47.490;19.030;2023-04-22T09:44:07;99967.12;;;23.23;23.74
67980;BME280;54760;47.490;19.030;2023-04-22T09:46:33;99971.72;;;23.26;23.93
67980;BME280;54760;47.490;19.030;2023-04-22T09:48:59;99962.84;;;23.50;23.97
67980;BME280;54760;47.490;19.030;2023-04-22T09:51:25;99951.41;;;23.53;24.04
67980;BME280;54760;47.490;19.030;2023-04-22T09:56:41;99951.66;;;23.27;24.40
67980;BME280;54760;47.490;19.030;2023-04-22T09:59:07;99950.13;;;23.26;24.32
67980;BME280;54760;47.490;19.030;2023-04-22T10:01:40;99947.84;;;23.25;24.11
67980;BME280;54760;47.490;19.030;2023-04-22T10:04:07;99938.38;;;23.72;23.65
67980;BME280;54760;47.490;19.030;2023-04-22T10:06:34;99941.16;;;23.84;23.48
67980;BME280;54760;47.490;19.030;2023-04-22T10:09:00;99939.22;;;23.40;24.02
67980;BME280;54760;47.490;19.030;2023-04-22T10:11:26;99945.53;;;22.57;24.84
67980;BME280;54760;47.490;19.030;2023-04-22T10:13:52;99929.84;;;22.87;24.68
67980;BME280;54760;47.490;19.030;2023-04-22T10:16:21;99937.94;;;23.29;24.50
67980;BME280;54760;47.490;19.030;2023-04-22T10:18:48;99927.75;;;23.43;24.14
67980;BME280;54760;47.490;19.030;2023-04-22T10:21:17;99928.75;;;23.73;23.71
67980;BME280;54760;47.490;19.030;2023-04-22T10:23:46;99922.47;;;24.14;23.46
67980;BME280;54760;47.490;19.030;2023-04-22T10:26:12;99926.25;;;24.28;23.37
67980;BME280;54760;47.490;19.030;2023-04-22T10:28:42;99920.22;;;24.07;23.40
67980;BME280;54760;47.490;19.030;2023-04-22T10:31:20;99927.47;;;23.74;23.82
67980;BME280;54760;47.490;19.030;2023-04-22T10:33:46;99918.66;;;24.11;23.34
67980;BME280;54760;47.490;19.030;2023-04-22T10:36:16;99913.47;;;24.38;22.74
67980;BME280;54760;47.490;19.030;2023-04-22T10:41:22;99915.69;;;24.45;21.96
67980;BME280;54760;47.490;19.030;2023-04-22T10:43:54;99912.47;;;24.30;22.01
67980;BME280;54760;47.490;19.030;2023-04-22T10:49:10;99913.78;;;24.29;22.37
67980;BME280;54760;47.490;19.030;2023-04-22T10:57:05;99905.81;;;24.74;21.31
67980;BME280;54760;47.490;19.030;2023-04-22T10:59:33;99910.84;;;24.86;21.38
67980;BME280;54760;47.490;19.030;2023-04-22T11:02:04;99907.72;;;24.95;21.32
67980;BME280;54760;47.490;19.030;2023-04-22T11:04:30;99896.91;;;24.75;21.42
67980;BME280;54760;47.490;19.030;2023-04-22T11:09:46;99910.22;;;25.29;20.42
67980;BME280;54760;47.490;19.030;2023-04-22T11:17:34;99901.72;;;24.80;20.59
67980;BME280;54760;47.490;19.030;2023-04-22T11:20:00;99898.59;;;24.07;21.21
67980;BME280;54760;47.490;19.030;2023-04-22T11:22:26;99894.81;;;23.25;22.33
67980;BME280;54760;47.490;19.030;2023-04-22T11:24:56;99895.06;;;22.66;23.04
67980;BME280;54760;47.490;19.030;2023-04-22T11:27:22;99904.47;;;22.96;22.98
67980;BME280;54760;47.490;19.030;2023-04-22T11:32:43;99894.75;;;23.42;22.75
67980;BME280;54760;47.490;19.030;2023-04-22T11:35:14;99901.44;;;23.16;21.82
67980;BME280;54760;47.490;19.030;2023-04-22T11:37:43;99902.19;;;22.89;22.15
67980;BME280;54760;47.490;19.030;2023-04-22T11:40:11;99900.16;;;22.73;22.03
67980;BME280;54760;47.490;19.030;2023-04-22T11:42:37;99903.94;;;22.64;22.17
67980;BME280;54760;47.490;19.030;2023-04-22T11:45:04;99889.72;;;22.45;22.44
67980;BME280;54760;47.490;19.030;2023-04-22T11:47:31;99892.81;;;22.81;22.40
67980;BME280;54760;47.490;19.030;2023-04-22T11:50:00;99896.56;;;23.28;21.93
67980;BME280;54760;47.490;19.030;2023-04-22T11:55:14;99893.97;;;23.58;22.48
67980;BME280;54760;47.490;19.030;2023-04-22T11:57:40;99898.47;;;23.83;22.46
67980;BME280;54760;47.490;19.030;2023-04-22T12:00:08;99885.91;;;24.06;22.22
67980;BME280;54760;47.490;19.030;2023-04-22T12:02:35;99888.66;;;24.17;21.61
67980;BME280;54760;47.490;19.030;2023-04-22T12:05:01;99891.63;;;24.31;21.78
67980;BME280;54760;47.490;19.030;2023-04-22T12:07:27;99887.19;;;24.00;22.28
67980;BME280;54760;47.490;19.030;2023-04-22T12:09:53;99883.59;;;24.10;22.81
67980;BME280;54760;47.490;19.030;2023-04-22T12:12:24;99883.03;;;24.29;22.03
67980;BME280;54760;47.490;19.030;2023-04-22T12:14:49;99880.84;;;24.87;21.77
67980;BME280;54760;47.490;19.030;2023-04-22T12:17:15;99885.06;;;24.93;21.44
67980;BME280;54760;47.490;19.030;2023-04-22T12:19:47;99884.81;;;24.62;22.01
67980;BME280;54760;47.490;19.030;2023-04-22T12:22:22;99879.09;;;24.43;22.03
67980;BME280;54760;47.490;19.030;2023-04-22T12:24:49;99881.84;;;24.07;21.96
67980;BME280;54760;47.490;19.030;2023-04-22T12:27:14;99874.84;;;23.79;22.08
67980;BME280;54760;47.490;19.030;2023-04-22T12:29:49;99875.66;;;23.68;22.79
67980;BME280;54760;47.490;19.030;2023-04-22T12:32:16;99873.00;;;23.98;22.29
67980;BME280;54760;47.490;19.030;2023-04-22T12:34:41;99876.94;;;24.19;21.81
67980;BME280;54760;47.490;19.030;2023-04-22T12:37:07;99871.13;;;24.11;22.58
67980;BME280;54760;47.490;19.030;2023-04-22T12:39:32;99876.97;;;24.13;22.10
67980;BME280;54760;47.490;19.030;2023-04-22T12:41:57;99865.34;;;24.04;22.13
67980;BME280;54760;47.490;19.030;2023-04-22T12:44:23;99871.59;;;24.15;22.41
67980;BME280;54760;47.490;19.030;2023-04-22T12:46:49;99864.78;;;24.16;22.32
67980;BME280;54760;47.490;19.030;2023-04-22T12:49:14;99864.25;;;24.12;21.82
67980;BME280;54760;47.490;19.030;2023-04-22T12:51:40;99858.38;;;24.16;22.15
67980;BME280;54760;47.490;19.030;2023-04-22T12:54:05;99864.72;;;24.28;21.93
67980;BME280;54760;47.490;19.030;2023-04-22T12:56:30;99849.69;;;23.84;22.29
67980;BME280;54760;47.490;19.030;2023-04-22T12:58:56;99859.19;;;24.11;22.28
67980;BME280;54760;47.490;19.030;2023-04-22T13:01:27;99853.66;;;24.00;22.34
67980;BME280;54760;47.490;19.030;2023-04-22T13:03:52;99851.97;;;23.80;22.56
67980;BME280;54760;47.490;19.030;2023-04-22T13:06:17;99850.34;;;23.49;22.57
67980;BME280;54760;47.490;19.030;2023-04-22T13:08:43;99854.34;;;23.65;23.68
67980;BME280;54760;47.490;19.030;2023-04-22T13:11:08;99840.06;;;23.80;22.78
67980;BME280;54760;47.490;19.030;2023-04-22T13:13:34;99840.75;;;23.91;23.83